sensor_id;sensor_type;location;lat;lon;timestamp;pressure;altitude;pressure_sealevel;temperature;humidity
41264;BME280;26998;48.714;9.414;2023-04-26T00:00:49;99170.13;;;6.01;100.00
41264;BME280;26998;48.714;9.414;2023-04-26T00:03:15;99168.44;;;6.00;100.00
41264;BME280;26998;48.714;9.414;2023-04-26T00:05:42;99160.16;;;5.95;100.00
41264;BME280;26998;48.714;9.414;2023-04-26T00:08:08;99166.28;;;5.96;100.00
41264;BME280;26998;48.714;9.414;2023-04-26T00:10:35;99157.94;;;5.91;100.00
41264;BME280;26998;48.714;9.414;2023-04-26T00:13:01;99148.16;;;5.91;100.00
41264;BME280;26998;48.714;9.414;2023-04-26T00:15:28;99146.16;;;5.85;100.00
41264;BME280;26998;48.714;9.414;2023-04-26T00:17:54;99134.53;;;5.78;100.00
41264;BME280;26998;48.714;9.414;2023-04-26T00:20:21;99137.13;;;5.70;100.00
41264;BME280;26998;48.714;9.414;2023-04-26T00:22:48;99142.75;;;5.67;100.00
41264;BME280;26998;48.714;9.414;2023-04-26T00:25:15;99133.78;;;5.60;100.00
41264;BME280;26998;48.714;9.414;2023-04-26T00:27:41;99128.47;;;5.51;100.00
41264;BME280;26998;48.714;9.414;2023-04-26T00:30:08;99119.47;;;5.44;100.00
41264;BME280;26998;48.714;9.414;2023-04-26T00:32:36;99117.50;;;5.46;100.00
41264;BME280;26998;48.714;9.414;2023-04-26T00:35:03;99105.25;;;5.45;100.00
41264;BME280;26998;48.714;9.414;2023-04-26T00:37:29;99093.47;;;5.40;100.00
41264;BME280;26998;48.714;9.414;2023-04-26T00:39:56;99085.66;;;5.38;100.00
41264;BME280;26998;48.714;9.414;2023-04-26T00:42:23;99091.13;;;5.37;100.00
41264;BME280;26998;48.714;9.414;2023-04-26T00:44:50;99091.94;;;5.37;100.00
41264;BME280;26998;48.714;9.414;2023-04-26T00:47:16;99102.88;;;5.34;100.00
41264;BME280;26998;48.714;9.414;2023-04-26T00:49:43;99104.50;;;5.27;100.00
41264;BME280;26998;48.714;9.414;2023-04-26T00:52:10;99099.19;;;5.27;100.00
41264;BME280;26998;48.714;9.414;2023-04-26T00:54:37;99092.53;;;5.23;100.00
41264;BME280;26998;48.714;9.414;2023-04-26T00:57:03;99091.00;;;5.12;100.00
41264;BME280;26998;48.714;9.414;2023-04-26T00:59:30;99097.91;;;5.05;100.00
41264;BME280;26998;48.714;9.414;2023-04-26T01:01:58;99091.41;;;4.99;100.00
41264;BME280;26998;48.714;9.414;2023-04-26T01:04:24;99094.00;;;4.91;100.00
41264;BME280;26998;48.714;9.414;2023-04-26T01:06:51;99087.69;;;4.84;100.00
41264;BME280;26998;48.714;9.414;2023-04-26T01:09:18;99096.31;;;4.86;100.00
41264;BME280;26998;48.714;9.414;2023-04-26T01:11:45;99090.66;;;4.81;100.00
41264;BME280;26998;48.714;9.414;2023-04-26T01:14:13;99089.59;;;4.74;100.00
41264;BME280;26998;48.714;9.414;2023-04-26T01:16:40;99080.34;;;4.78;100.00
41264;BME280;26998;48.714;9.414;2023-04-26T01:19:10;99093.75;;;4.76;100.00
41264;BME280;26998;48.714;9.414;2023-04-26T01:21:38;99083.00;;;4.78;100.00
41264;BME280;26998;48.714;9.414;2023-04-26T01:24:05;99086.03;;;4.83;100.00
41264;BME280;26998;48.714;9.414;2023-04-26T01:26:31;99078.91;;;4.83;100.00
41264;BME280;26998;48.714;9.414;2023-04-26T01:28:58;99076.09;;;4.85;100.00
41264;BME280;26998;48.714;9.414;2023-04-26T01:31:25;99071.63;;;4.85;100.00
41264;BME280;26998;48.714;9.414;2023-04-26T01:33:51;99066.81;;;4.81;100.00
41264;BME280;26998;48.714;9.414;2023-04-26T01:36:19;99068.63;;;4.80;100.00
41264;BME280;26998;48.714;9.414;2023-04-26T01:38:46;99071.28;;;4.80;100.00
41264;BME280;26998;48.714;9.414;2023-04-26T01:41:13;99068.78;;;4.79;100.00
41264;BME280;26998;48.714;9.414;2023-04-26T01:43:39;99077.34;;;4.73;100.00
41264;BME280;26998;48.714;9.414;2023-04-26T01:46:06;99085.75;;;4.68;100.00
41264;BME280;26998;48.714;9.414;2023-04-26T01:48:32;99081.28;;;4.69;100.00
41264;BME280;26998;48.714;9.414;2023-04-26T01:50:59;99065.34;;;4.60;100.00
41264;BME280;26998;48.714;9.414;2023-04-26T01:53:25;99049.94;;;4.56;100.00
41264;BME280;26998;48.714;9.414;2023-04-26T01:55:52;99031.84;;;4.51;100.00
41264;BME280;26998;48.714;9.414;2023-04-26T01:58:19;99022.88;;;4.44;100.00
41264;BME280;26998;48.714;9.414;2023-04-26T02:00:45;99011.41;;;4.35;100.00
41264;BME280;26998;48.714;9.414;2023-04-26T02:03:11;98995.94;;;4.23;100.00
41264;BME280;26998;48.714;9.414;2023-04-26T02:05:38;98994.19;;;4.13;100.00
41264;BME280;26998;48.714;9.414;2023-04-26T02:08:05;98994.81;;;4.07;100.00
41264;BME280;26998;48.714;9.414;2023-04-26T02:10:31;98991.44;;;3.97;100.00
41264;BME280;26998;48.714;9.414;2023-04-26T02:12:58;98995.50;;;3.91;100.00
41264;BME280;26998;48.714;9.414;2023-04-26T02:15:24;98996.81;;;3.87;100.00
41264;BME280;26998;48.714;9.414;2023-04-26T02:17:51;98995.16;;;3.86;100.00
41264;BME280;26998;48.714;9.414;2023-04-26T02:20:18;98991.13;;;3.82;100.00
41264;BME280;26998;48.714;9.414;2023-04-26T02:22:44;98989.56;;;3.72;100.00
41264;BME280;26998;48.714;9.414;2023-04-26T02:25:11;98992.81;;;3.65;100.00
41264;BME280;26998;48.714;9.414;2023-04-26T02:27:37;98995.06;;;3.60;100.00
41264;BME280;26998;48.714;9.414;2023-04-26T02:30:04;98997.69;;;3.60;100.00
41264;BME280;26998;48.714;9.414;2023-04-26T02:32:31;99002.38;;;3.48;100.00
41264;BME280;26998;48.714;9.414;2023-04-26T02:34:58;99008.09;;;3.44;100.00
41264;BME280;26998;48.714;9.414;2023-04-26T02:37:25;99013.91;;;3.47;100.00
41264;BME280;26998;48.714;9.414;2023-04-26T02:39:51;99013.00;;;3.39;100.00
41264;BME280;26998;48.714;9.414;2023-04-26T02:42:19;99017.44;;;3.38;100.00
41264;BME280;26998;48.714;9.414;2023-04-26T02:44:45;99027.72;;;3.41;100.00
41264;BME280;26998;48.714;9.414;2023-04-26T02:47:12;99010.16;;;3.50;100.00
41264;BME280;26998;48.714;9.414;2023-04-26T02:49:39;99010.97;;;3.51;100.00
41264;BME280;26998;48.714;9.414;2023-04-26T02:52:05;99010.16;;;3.50;100.00
41264;BME280;26998;48.714;9.414;2023-04-26T02:54:32;99010.00;;;3.52;100.00
41264;BME280;26998;48.714;9.414;2023-04-26T02:56:58;99010.00;;;3.52;100.00
41264;BME280;26998;48.714;9.414;2023-04-26T02:59:25;99007.59;;;3.58;100.00
41264;BME280;26998;48.714;9.414;2023-04-26T03:01:52;99016.50;;;3.57;100.00
41264;BME280;26998;48.714;9.414;2023-04-26T03:04:19;99015.06;;;3.63;100.00
41264;BME280;26998;48.714;9.414;2023-04-26T03:06:46;99020.06;;;3.66;100.00
41264;BME280;26998;48.714;9.414;2023-04-26T03:09:12;99025.06;;;3.69;100.00
41264;BME280;26998;48.714;9.414;2023-04-26T03:11:39;99018.94;;;3.68;100.00
41264;BME280;26998;48.714;9.414;2023-04-26T03:14:05;99023.22;;;3.69;100.00
41264;BME280;26998;48.714;9.414;2023-04-26T03:16:40;99021.88;;;3.65;100.00
41264;BME280;26998;48.714;9.414;2023-04-26T03:19:06;99025.97;;;3.78;100.00
41264;BME280;26998;48.714;9.414;2023-04-26T03:21:33;99032.47;;;3.83;100.00
41264;BME280;26998;48.714;9.414;2023-04-26T03:24:00;99033.06;;;3.77;100.00
41264;BME280;26998;48.714;9.414;2023-04-26T03:26:27;99026.56;;;3.72;100.00
41264;BME280;26998;48.714;9.414;2023-04-26T03:28:54;99020.06;;;3.66;100.00
41264;BME280;26998;48.714;9.414;2023-04-26T03:31:20;99018.25;;;3.66;100.00
41264;BME280;26998;48.714;9.414;2023-04-26T03:33:48;99016.00;;;3.72;100.00
41264;BME280;26998;48.714;9.414;2023-04-26T03:36:15;99013.06;;;3.75;100.00
41264;BME280;26998;48.714;9.414;2023-04-26T03:38:41;99007.06;;;3.73;100.00
41264;BME280;26998;48.714;9.414;2023-04-26T03:41:08;99012.75;;;3.78;100.00
41264;BME280;26998;48.714;9.414;2023-04-26T03:43:34;99005.13;;;3.75;100.00
41264;BME280;26998;48.714;9.414;2023-04-26T03:46:03;98995.81;;;3.70;100.00
41264;BME280;26998;48.714;9.414;2023-04-26T03:48:29;99003.50;;;3.64;100.00
41264;BME280;26998;48.714;9.414;2023-04-26T03:50:56;98998.81;;;3.58;100.00
41264;BME280;26998;48.714;9.414;2023-04-26T03:53:22;98995.00;;;3.52;100.00
41264;BME280;26998;48.714;9.414;2023-04-26T03:55:49;98984.56;;;3.51;100.00
41264;BME280;26998;48.714;9.414;2023-04-26T03:58:15;98984.84;;;3.47;100.00
41264;BME280;26998;48.714;9.414;2023-04-26T04:00:42;98979.63;;;3.38;100.00
41264;BME280;26998;48.714;9.414;2023-04-26T04:03:08;98988.34;;;3.20;100.00
41264;BME280;26998;48.714;9.414;2023-04-26T04:05:36;98996.88;;;3.14;100.00
41264;BME280;26998;48.714;9.414;2023-04-26T04:08:02;98990.69;;;3.06;100.00
41264;BME280;26998;48.714;9.414;2023-04-26T04:10:29;98979.56;;;3.02;100.00
41264;BME280;26998;48.714;9.414;2023-04-26T04:12:55;98985.13;;;2.99;100.00
41264;BME280;26998;48.714;9.414;2023-04-26T04:15:22;98977.19;;;3.09;100.00
41264;BME280;26998;48.714;9.414;2023-04-26T04:17:48;98978.09;;;3.17;100.00
41264;BME280;26998;48.714;9.414;2023-04-26T04:20:15;98968.97;;;3.30;100.00
41264;BME280;26998;48.714;9.414;2023-04-26T04:22:41;98958.50;;;3.38;100.00
41264;BME280;26998;48.714;9.414;2023-04-26T04:25:08;98961.75;;;3.50;100.00
41264;BME280;26998;48.714;9.414;2023-04-26T04:27:36;98958.22;;;3.59;100.00
41264;BME280;26998;48.714;9.414;2023-04-26T04:30:05;98953.38;;;3.72;100.00
41264;BME280;26998;48.714;9.414;2023-04-26T04:32:32;98955.19;;;3.72;100.00
41264;BME280;26998;48.714;9.414;2023-04-26T04:34:58;98960.41;;;3.63;100.00
41264;BME280;26998;48.714;9.414;2023-04-26T04:37:25;98965.78;;;3.72;100.00
41264;BME280;26998;48.714;9.414;2023-04-26T04:39:52;98969.47;;;3.79;100.00
41264;BME280;26998;48.714;9.414;2023-04-26T04:42:18;98970.44;;;3.78;100.00
41264;BME280;26998;48.714;9.414;2023-04-26T04:44:46;98967.19;;;3.66;100.00
41264;BME280;26998;48.714;9.414;2023-04-26T04:47:12;98969.47;;;3.79;100.00
41264;BME280;26998;48.714;9.414;2023-04-26T04:49:39;98965.00;;;3.79;100.00
41264;BME280;26998;48.714;9.414;2023-04-26T04:52:05;98962.56;;;4.04;100.00
41264;BME280;26998;48.714;9.414;2023-04-26T04:54:32;98973.31;;;4.02;100.00
41264;BME280;26998;48.714;9.414;2023-04-26T04:56:58;98971.22;;;4.14;100.00
41264;BME280;26998;48.714;9.414;2023-04-26T04:59:25;98981.59;;;4.07;100.00
41264;BME280;26998;48.714;9.414;2023-04-26T05:01:53;98992.84;;;4.09;100.00
41264;BME280;26998;48.714;9.414;2023-04-26T05:04:19;98989.16;;;4.02;100.00
41264;BME280;26998;48.714;9.414;2023-04-26T05:06:48;99002.19;;;3.78;100.00
41264;BME280;26998;48.714;9.414;2023-04-26T05:09:14;99004.81;;;3.60;100.00
41264;BME280;26998;48.714;9.414;2023-04-26T05:11:41;99011.06;;;3.59;100.00
41264;BME280;26998;48.714;9.414;2023-04-26T05:14:07;99007.28;;;3.43;100.00
41264;BME280;26998;48.714;9.414;2023-04-26T05:16:34;99008.22;;;3.52;100.00
41264;BME280;26998;48.714;9.414;2023-04-26T05:19:01;98999.34;;;3.43;100.00
41264;BME280;26998;48.714;9.414;2023-04-26T05:21:27;99008.16;;;3.34;100.00
41264;BME280;26998;48.714;9.414;2023-04-26T05:23:53;99007.63;;;3.31;100.00
41264;BME280;26998;48.714;9.414;2023-04-26T05:26:20;99003.03;;;3.33;100.00
41264;BME280;26998;48.714;9.414;2023-04-26T05:28:47;99007.28;;;3.43;100.00
41264;BME280;26998;48.714;9.414;2023-04-26T05:31:13;99002.38;;;3.48;100.00
41264;BME280;26998;48.714;9.414;2023-04-26T05:33:41;99000.88;;;3.64;100.00
41264;BME280;26998;48.714;9.414;2023-04-26T05:36:08;99005.94;;;3.75;100.00
41264;BME280;26998;48.714;9.414;2023-04-26T05:38:35;99010.72;;;3.89;100.00
41264;BME280;26998;48.714;9.414;2023-04-26T05:41:01;99015.88;;;4.17;100.00
41264;BME280;26998;48.714;9.414;2023-04-26T05:43:29;99019.22;;;4.01;100.00
41264;BME280;26998;48.714;9.414;2023-04-26T05:45:57;99023.59;;;4.10;100.00
41264;BME280;26998;48.714;9.414;2023-04-26T05:48:23;99045.06;;;4.07;100.00
41264;BME280;26998;48.714;9.414;2023-04-26T05:50:51;99052.97;;;4.43;100.00
41264;BME280;26998;48.714;9.414;2023-04-26T05:53:18;99066.63;;;4.30;100.00
41264;BME280;26998;48.714;9.414;2023-04-26T05:55:52;99086.78;;;4.13;100.00
41264;BME280;26998;48.714;9.414;2023-04-26T05:58:19;99088.16;;;4.18;100.00
41264;BME280;26998;48.714;9.414;2023-04-26T06:00:45;99105.75;;;4.09;100.00
41264;BME280;26998;48.714;9.414;2023-04-26T06:03:12;99112.34;;;4.23;100.00
41264;BME280;26998;48.714;9.414;2023-04-26T06:05:39;99111.97;;;4.18;100.00
41264;BME280;26998;48.714;9.414;2023-04-26T06:08:08;99117.84;;;4.29;100.00
41264;BME280;26998;48.714;9.414;2023-04-26T06:10:35;99119.22;;;4.33;100.00
41264;BME280;26998;48.714;9.414;2023-04-26T06:13:02;99130.56;;;4.88;100.00
41264;BME280;26998;48.714;9.414;2023-04-26T06:15:29;99139.88;;;5.86;100.00
41264;BME280;26998;48.714;9.414;2023-04-26T06:17:56;99191.47;;;6.51;100.00
41264;BME280;26998;48.714;9.414;2023-04-26T06:20:26;99321.88;;;6.39;100.00
41264;BME280;26998;48.714;9.414;2023-04-26T06:22:53;99398.56;;;6.77;100.00
41264;BME280;26998;48.714;9.414;2023-04-26T06:25:20;99435.47;;;6.28;100.00
41264;BME280;26998;48.714;9.414;2023-04-26T06:27:46;99445.25;;;6.27;100.00
41264;BME280;26998;48.714;9.414;2023-04-26T06:30:13;99451.97;;;5.60;100.00
41264;BME280;26998;48.714;9.414;2023-04-26T06:32:41;99446.06;;;5.30;100.00
41264;BME280;26998;48.714;9.414;2023-04-26T06:35:08;99422.94;;;5.22;100.00
41264;BME280;26998;48.714;9.414;2023-04-26T06:37:36;99399.44;;;4.92;100.00
41264;BME280;26998;48.714;9.414;2023-04-26T06:40:03;99386.91;;;5.29;100.00
41264;BME280;26998;48.714;9.414;2023-04-26T06:42:30;99368.94;;;5.59;100.00
41264;BME280;26998;48.714;9.414;2023-04-26T06:45:05;99379.56;;;5.85;100.00
41264;BME280;26998;48.714;9.414;2023-04-26T06:47:31;99402.94;;;5.82;100.00
41264;BME280;26998;48.714;9.414;2023-04-26T06:49:58;99414.53;;;5.98;100.00
41264;BME280;26998;48.714;9.414;2023-04-26T06:52:24;99434.13;;;6.23;100.00
41264;BME280;26998;48.714;9.414;2023-04-26T06:54:51;99446.00;;;6.71;100.00
41264;BME280;26998;48.714;9.414;2023-04-26T06:57:23;99463.50;;;7.33;100.00
41264;BME280;26998;48.714;9.414;2023-04-26T06:59:49;99457.97;;;7.18;100.00
41264;BME280;26998;48.714;9.414;2023-04-26T07:02:16;99459.31;;;6.45;100.00
41264;BME280;26998;48.714;9.414;2023-04-26T07:04:43;99465.50;;;6.88;100.00
41264;BME280;26998;48.714;9.414;2023-04-26T07:07:10;99461.25;;;6.69;100.00
41264;BME280;26998;48.714;9.414;2023-04-26T07:09:39;99466.63;;;6.78;100.00
41264;BME280;26998;48.714;9.414;2023-04-26T07:12:06;99464.47;;;7.24;100.00
41264;BME280;26998;48.714;9.414;2023-04-26T07:14:33;99454.97;;;6.70;100.00
41264;BME280;26998;48.714;9.414;2023-04-26T07:17:02;99462.16;;;6.52;100.00
41264;BME280;26998;48.714;9.414;2023-04-26T07:19:28;99456.78;;;7.04;100.00
41264;BME280;26998;48.714;9.414;2023-04-26T07:21:55;99454.81;;;7.23;100.00
41264;BME280;26998;48.714;9.414;2023-04-26T07:24:22;99436.78;;;7.51;100.00
41264;BME280;26998;48.714;9.414;2023-04-26T07:26:48;99429.81;;;7.42;100.00
41264;BME280;26998;48.714;9.414;2023-04-26T07:29:15;99412.38;;;7.63;100.00
41264;BME280;26998;48.714;9.414;2023-04-26T07:31:45;99404.53;;;8.11;100.00
41264;BME280;26998;48.714;9.414;2023-04-26T07:34:11;99382.22;;;8.12;100.00
41264;BME280;26998;48.714;9.414;2023-04-26T07:36:38;99366.03;;;8.30;100.00
41264;BME280;26998;48.714;9.414;2023-04-26T07:39:05;99357.28;;;7.97;100.00
41264;BME280;26998;48.714;9.414;2023-04-26T07:41:31;99406.31;;;8.43;100.00
41264;BME280;26998;48.714;9.414;2023-04-26T07:43:58;99372.97;;;9.26;100.00
41264;BME280;26998;48.714;9.414;2023-04-26T07:46:25;99236.47;;;9.37;100.00
41264;BME280;26998;48.714;9.414;2023-04-26T07:48:51;99163.06;;;9.27;100.00
41264;BME280;26998;48.714;9.414;2023-04-26T07:51:18;99102.28;;;9.37;100.00
41264;BME280;26998;48.714;9.414;2023-04-26T07:53:45;99114.84;;;8.61;100.00
41264;BME280;26998;48.714;9.414;2023-04-26T07:56:11;98970.88;;;9.64;100.00
41264;BME280;26998;48.714;9.414;2023-04-26T07:58:38;98940.09;;;9.68;100.00
41264;BME280;26998;48.714;9.414;2023-04-26T08:01:07;98905.00;;;10.43;100.00
41264;BME280;26998;48.714;9.414;2023-04-26T08:03:34;98905.56;;;10.31;100.00
41264;BME280;26998;48.714;9.414;2023-04-26T08:06:01;98895.88;;;9.81;100.00
41264;BME280;26998;48.714;9.414;2023-04-26T08:08:28;98936.28;;;9.35;100.00
41264;BME280;26998;48.714;9.414;2023-04-26T08:10:55;98943.53;;;9.41;100.00
41264;BME280;26998;48.714;9.414;2023-04-26T08:13:21;98930.56;;;10.02;100.00
41264;BME280;26998;48.714;9.414;2023-04-26T08:15:48;98934.59;;;9.70;100.00
41264;BME280;26998;48.714;9.414;2023-04-26T08:18:14;98931.31;;;9.53;100.00
41264;BME280;26998;48.714;9.414;2023-04-26T08:20:41;98919.41;;;9.92;100.00
41264;BME280;26998;48.714;9.414;2023-04-26T08:23:07;98912.53;;;10.60;100.00
41264;BME280;26998;48.714;9.414;2023-04-26T08:25:34;98904.53;;;10.32;100.00
41264;BME280;26998;48.714;9.414;2023-04-26T08:28:00;98907.69;;;9.93;100.00
41264;BME280;26998;48.714;9.414;2023-04-26T08:30:27;98908.44;;;10.08;100.00
41264;BME280;26998;48.714;9.414;2023-04-26T08:32:53;98906.88;;;9.92;100.00
41264;BME280;26998;48.714;9.414;2023-04-26T08:35:20;98896.53;;;10.11;100.00
41264;BME280;26998;48.714;9.414;2023-04-26T08:37:47;98883.94;;;10.26;100.00
41264;BME280;26998;48.714;9.414;2023-04-26T08:40:15;98877.44;;;10.77;100.00
41264;BME280;26998;48.714;9.414;2023-04-26T08:42:46;98877.16;;;10.58;98.97
41264;BME280;26998;48.714;9.414;2023-04-26T08:45:15;98877.47;;;11.38;95.41
41264;BME280;26998;48.714;9.414;2023-04-26T08:47:50;98875.66;;;11.72;96.94
41264;BME280;26998;48.714;9.414;2023-04-26T08:50:22;98873.00;;;12.18;95.62
41264;BME280;26998;48.714;9.414;2023-04-26T08:52:50;98884.28;;;11.67;96.45
41264;BME280;26998;48.714;9.414;2023-04-26T08:55:18;98877.63;;;11.30;96.55
41264;BME280;26998;48.714;9.414;2023-04-26T08:57:46;98880.81;;;11.73;86.01
41264;BME280;26998;48.714;9.414;2023-04-26T09:00:18;98878.28;;;11.52;90.62
41264;BME280;26998;48.714;9.414;2023-04-26T09:02:47;98879.34;;;11.51;91.83
41264;BME280;26998;48.714;9.414;2023-04-26T09:05:14;98877.63;;;11.23;89.40
41264;BME280;26998;48.714;9.414;2023-04-26T09:07:44;98869.69;;;10.89;94.06
41264;BME280;26998;48.714;9.414;2023-04-26T09:10:13;98874.28;;;11.15;95.52
41264;BME280;26998;48.714;9.414;2023-04-26T09:12:39;98876.88;;;10.88;91.74
41264;BME280;26998;48.714;9.414;2023-04-26T09:15:06;98874.50;;;11.13;92.96
41264;BME280;26998;48.714;9.414;2023-04-26T09:17:35;98873.81;;;12.32;86.19
41264;BME280;26998;48.714;9.414;2023-04-26T09:20:25;98869.44;;;12.51;88.26
41264;BME280;26998;48.714;9.414;2023-04-26T09:23:07;98870.00;;;12.73;80.96
41264;BME280;26998;48.714;9.414;2023-04-26T09:25:34;98876.16;;;12.80;77.42
41264;BME280;26998;48.714;9.414;2023-04-26T09:28:02;98875.50;;;12.91;82.00
41264;BME280;26998;48.714;9.414;2023-04-26T09:30:36;98874.03;;;12.31;71.84
41264;BME280;26998;48.714;9.414;2023-04-26T09:33:03;98862.63;;;12.48;73.12
41264;BME280;26998;48.714;9.414;2023-04-26T09:35:37;98868.25;;;12.34;76.65
41264;BME280;26998;48.714;9.414;2023-04-26T09:38:11;98874.44;;;12.21;76.14
41264;BME280;26998;48.714;9.414;2023-04-26T09:40:49;98858.94;;;12.50;76.57
41264;BME280;26998;48.714;9.414;2023-04-26T09:43:18;98860.03;;;12.09;70.93
41264;BME280;26998;48.714;9.414;2023-04-26T09:45:50;98862.69;;;11.75;73.10
41264;BME280;26998;48.714;9.414;2023-04-26T09:48:28;98853.00;;;12.08;72.91
41264;BME280;26998;48.714;9.414;2023-04-26T09:50:58;98848.06;;;12.05;83.28
41264;BME280;26998;48.714;9.414;2023-04-26T09:53:40;98850.34;;;11.81;74.73
41264;BME280;26998;48.714;9.414;2023-04-26T09:56:10;98844.78;;;11.89;77.12
41264;BME280;26998;48.714;9.414;2023-04-26T09:58:39;98843.13;;;12.01;72.95
41264;BME280;26998;48.714;9.414;2023-04-26T10:01:21;98844.53;;;12.37;72.23
41264;BME280;26998;48.714;9.414;2023-04-26T10:03:48;98845.97;;;12.27;74.52
41264;BME280;26998;48.714;9.414;2023-04-26T10:06:15;98842.50;;;11.73;76.38
41264;BME280;26998;48.714;9.414;2023-04-26T10:08:43;98847.88;;;12.13;74.10
41264;BME280;26998;48.714;9.414;2023-04-26T10:11:10;98842.28;;;12.21;74.13
41264;BME280;26998;48.714;9.414;2023-04-26T10:13:41;98843.88;;;12.48;65.33
41264;BME280;26998;48.714;9.414;2023-04-26T10:16:09;98845.31;;;12.44;64.69
41264;BME280;26998;48.714;9.414;2023-04-26T10:18:45;98839.34;;;13.01;66.42
41264;BME280;26998;48.714;9.414;2023-04-26T10:21:39;98849.88;;;13.72;58.33
41264;BME280;26998;48.714;9.414;2023-04-26T10:24:07;98839.06;;;12.64;58.56
41264;BME280;26998;48.714;9.414;2023-04-26T10:26:51;98831.56;;;12.86;64.25
41264;BME280;26998;48.714;9.414;2023-04-26T10:29:19;98830.31;;;12.88;60.38
41264;BME280;26998;48.714;9.414;2023-04-26T10:32:04;98831.84;;;12.71;62.32
41264;BME280;26998;48.714;9.414;2023-04-26T10:34:33;98831.09;;;11.18;69.84
41264;BME280;26998;48.714;9.414;2023-04-26T10:39:44;98818.81;;;11.90;76.54
41264;BME280;26998;48.714;9.414;2023-04-26T10:42:23;98821.69;;;11.75;76.17
41264;BME280;26998;48.714;9.414;2023-04-26T10:45:26;98822.84;;;12.45;68.28
41264;BME280;26998;48.714;9.414;2023-04-26T10:48:21;98826.00;;;12.22;72.75
41264;BME280;26998;48.714;9.414;2023-04-26T10:53:31;98818.00;;;12.09;66.08
41264;BME280;26998;48.714;9.414;2023-04-26T10:55:58;98823.94;;;12.24;63.07
41264;BME280;26998;48.714;9.414;2023-04-26T10:58:29;98819.00;;;11.48;66.08
41264;BME280;26998;48.714;9.414;2023-04-26T11:01:07;98822.03;;;12.38;61.45
41264;BME280;26998;48.714;9.414;2023-04-26T11:03:36;98823.81;;;12.64;59.33
41264;BME280;26998;48.714;9.414;2023-04-26T11:06:07;98818.31;;;12.53;64.14
41264;BME280;26998;48.714;9.414;2023-04-26T11:08:34;98815.66;;;12.39;56.91
41264;BME280;26998;48.714;9.414;2023-04-26T11:13:46;98816.72;;;12.83;63.23
41264;BME280;26998;48.714;9.414;2023-04-26T11:16:14;98820.06;;;12.79;52.85
41264;BME280;26998;48.714;9.414;2023-04-26T11:18:45;98818.50;;;13.03;49.79
41264;BME280;26998;48.714;9.414;2023-04-26T11:21:13;98823.88;;;13.03;45.40
41264;BME280;26998;48.714;9.414;2023-04-26T11:23:39;98827.09;;;12.73;46.61
41264;BME280;26998;48.714;9.414;2023-04-26T11:26:07;98820.03;;;13.30;46.17
41264;BME280;26998;48.714;9.414;2023-04-26T11:28:35;98809.59;;;13.72;46.11
41264;BME280;26998;48.714;9.414;2023-04-26T11:31:03;98818.00;;;12.81;51.23
41264;BME280;26998;48.714;9.414;2023-04-26T11:33:31;98800.38;;;13.36;49.18
41264;BME280;26998;48.714;9.414;2023-04-26T11:35:59;98799.66;;;13.73;47.78
41264;BME280;26998;48.714;9.414;2023-04-26T11:38:28;98786.91;;;13.68;49.97
41264;BME280;26998;48.714;9.414;2023-04-26T11:41:01;98780.19;;;14.21;47.02
41264;BME280;26998;48.714;9.414;2023-04-26T11:43:36;98778.31;;;14.03;46.20
41264;BME280;26998;48.714;9.414;2023-04-26T11:46:05;98781.16;;;13.65;45.16
41264;BME280;26998;48.714;9.414;2023-04-26T11:48:34;98778.00;;;13.43;45.29
41264;BME280;26998;48.714;9.414;2023-04-26T11:51:02;98773.03;;;14.15;44.62
41264;BME280;26998;48.714;9.414;2023-04-26T11:56:16;98762.94;;;14.65;43.22
41264;BME280;26998;48.714;9.414;2023-04-26T11:58:47;98765.53;;;14.35;43.30
41264;BME280;26998;48.714;9.414;2023-04-26T12:01:24;98756.75;;;14.09;46.32
41264;BME280;26998;48.714;9.414;2023-04-26T12:03:52;98757.09;;;14.50;44.93
41264;BME280;26998;48.714;9.414;2023-04-26T12:06:25;98762.13;;;15.37;41.57
41264;BME280;26998;48.714;9.414;2023-04-26T12:08:55;98757.34;;;14.97;42.34
41264;BME280;26998;48.714;9.414;2023-04-26T12:11:23;98755.13;;;15.36;41.52
41264;BME280;26998;48.714;9.414;2023-04-26T12:13:50;98759.97;;;14.85;40.25
41264;BME280;26998;48.714;9.414;2023-04-26T12:16:17;98751.22;;;14.60;41.71
41264;BME280;26998;48.714;9.414;2023-04-26T12:18:55;98761.97;;;14.60;40.70
41264;BME280;26998;48.714;9.414;2023-04-26T12:21:23;98752.47;;;14.75;42.71
41264;BME280;26998;48.714;9.414;2023-04-26T12:23:50;98764.25;;;14.93;40.92
41264;BME280;26998;48.714;9.414;2023-04-26T12:26:17;98753.13;;;14.89;40.68
41264;BME280;26998;48.714;9.414;2023-04-26T12:28:44;98765.66;;;15.07;40.17
41264;BME280;26998;48.714;9.414;2023-04-26T12:31:10;98753.53;;;14.74;41.10
41264;BME280;26998;48.714;9.414;2023-04-26T12:33:37;98754.94;;;14.22;40.81
41264;BME280;26998;48.714;9.414;2023-04-26T12:36:11;98759.31;;;13.29;42.29
41264;BME280;26998;48.714;9.414;2023-04-26T12:38:38;98748.03;;;13.71;44.27
41264;BME280;26998;48.714;9.414;2023-04-26T12:41:05;98740.25;;;13.62;46.98
41264;BME280;26998;48.714;9.414;2023-04-26T12:43:31;98739.56;;;14.29;45.55
41264;BME280;26998;48.714;9.414;2023-04-26T12:45:59;98745.31;;;14.32;43.47
41264;BME280;26998;48.714;9.414;2023-04-26T12:48:26;98739.78;;;14.46;43.75
41264;BME280;26998;48.714;9.414;2023-04-26T12:50:53;98732.63;;;14.21;44.11
41264;BME280;26998;48.714;9.414;2023-04-26T12:53:20;98742.00;;;13.50;44.11
41264;BME280;26998;48.714;9.414;2023-04-26T12:55:47;98731.97;;;13.64;46.08
41264;BME280;26998;48.714;9.414;2023-04-26T12:58:13;98734.56;;;13.27;46.43
41264;BME280;26998;48.714;9.414;2023-04-26T13:00:40;98733.31;;;13.23;47.93
41264;BME280;26998;48.714;9.414;2023-04-26T13:03:09;98740.69;;;13.59;47.17
41264;BME280;26998;48.714;9.414;2023-04-26T13:05:36;98724.53;;;13.66;47.92
41264;BME280;26998;48.714;9.414;2023-04-26T13:08:03;98727.19;;;14.28;45.51
41264;BME280;26998;48.714;9.414;2023-04-26T13:10:30;98723.06;;;14.07;48.56
41264;BME280;26998;48.714;9.414;2023-04-26T13:12:57;98721.06;;;14.39;45.97
41264;BME280;26998;48.714;9.414;2023-04-26T13:15:24;98726.19;;;14.04;44.46